Weather at Turnbull Airport

Public forecast

Using degrees Fahrenheit for public forecast. Weather courtesy of forecast.io.

Closest aviation weather report (METAR) to Turnbull Airport

Closest report is Greater Rochester International Airport, 18.1 nm (33.4 km) NW. Retrieved 2021/02/27 00:54 UTC (1 hour ago):

KROC 270054Z 14010KT 10SM FEW100 01/M07 A3026 RMK AO2 SLP256 T00061072

Closest aviation forecast (TAF) to Turnbull Airport

Closest forecast is Greater Rochester International Airport, 18.1 nm (33.4 km) NW. Retrieved 2021-02-27 00:40 UTC (1 hour ago):

TAF KROC 262338Z 2700/2724 13009KT P6SM FEW150 SCT250 FM270700 16010G17KT P6SM BKN100 FM271000 17013G22KT 6SM -SHRA BR OVC035 FM271200 17013G22KT 6SM -RA BR OVC030 FM271500 20014G24KT 6SM -RA BR OVC035 FM271600 21014G24KT P6SM OVC025